KMIB

Minot AFB Airport

Minot, North Dakota, USA
METAR KMIB 151656Z AUTO 25006KT 10SM CLR 04/M03 A2961 RMK AO2 SLP046 T00411032 $
Observed Flight Rules
Dec-15 @ 16:56 UTC (6 minutes ago) Visual Flight Rules
Wind Visibility Clouds
250° at 6 knots 10 miles
  • Clear skies
Temperatures Readings
Current 4°C / 39°F
Dewpoint -3°C / 27°F
Humidity 61%
Altimeter 29.61" Hg
Pressure 1004.6 hPa
Elevation 508
METAR KMIB 151656Z AUTO 25006KT 10SM CLR 04/M03 A2961 RMK AO2 SLP046 T00411032 $
Observed Flight Rules
Dec-15 @ 16:56 UTC
(6 minutes ago)
VFR
Wind Visibility
250° at 6 knots 10 miles
Clouds
  • Clear skies
Temperature Dewpoint
4°C / 39°F -3°C / 27°F
Humidity Altimeter Pressure
61% 29.61" Hg 1004.6 hPa